FW7455 Weather Reports


Display with metric or nautical units.
time (UTC)temp
F
wind
direction
speed
MPH
gust
MPH
rain 1hr
in
rain 24hr
in
rain mn
in
humidity
%
barometer
mb
20210806020032 69 205 0.0 1.0 0.00 0.00 0.00 84 1022.4
20210806014555 69 205 0.0 1.0 0.00 0.00 0.00 82 1022.5
20210806013044 70 205 0.0 2.0 0.00 0.00 0.00 80 1022.1
20210806011528 70 205 0.0 1.0 0.00 0.00 0.00 78 1021.8
20210806010032 70 205 0.0 2.0 0.00 0.00 0.00 77 1021.8
20210806004527 72 205 1.0 2.0 0.00 0.00 0.00 75 1021.6
20210806003027 74 205 0.0 2.0 0.00 0.00 0.00 70 1021.5
20210806001610 77 205 1.0 3.0 0.00 0.00 0.00 60 1021.4
20210806000033 78 207 2.0 4.0 0.00 0.00 0.00 58 1021.4
20210805234550 78 207 2.0 4.0 0.00 0.00 0.00 57 1021.3
20210805233122 79 207 2.0 6.0 0.00 0.00 0.00 56 1021.4
20210805231534 79 171 2.0 6.0 0.00 0.00 0.00 54 1021.3
20210805230044 80 169 4.0 8.0 0.00 0.00 0.00 53 1021.1
20210805224528 81 170 2.0 7.0 0.00 0.00 0.00 52 1021.4
20210805223032 81 98 6.0 10.0 0.00 0.00 0.00 52 1021.3
20210805221524 82 191 3.0 8.0 0.00 0.00 0.00 51 1021.5
20210805220057 81 139 5.0 9.0 0.00 0.00 0.00 51 1021.5
20210805214530 81 238 2.0 5.0 0.00 0.00 0.00 50 1021.5
20210805213052 81 117 3.0 10.0 0.00 0.00 0.00 49 1021.5
20210805211557 83 125 6.0 13.0 0.00 0.00 0.00 48 1021.4
20210805210049 81 149 6.0 9.0 0.00 0.00 0.00 50 1021.4
20210805204534 82 196 4.0 9.0 0.00 0.00 0.00 48 1021.3
20210805203047 83 108 4.0 9.0 0.00 0.00 0.00 48 1021.4
20210805201605 82 0 1.0 11.0 0.00 0.00 0.00 47 1021.4
20210805200151 81 229 4.0 11.0 0.00 0.00 0.00 48 1021.5
20210805194536 82 105 2.0 14.0 0.00 0.00 0.00 48 1021.6
20210805193051 81 175 4.0 12.0 0.00 0.00 0.00 47 1021.7
20210805191626 81 135 3.0 16.0 0.00 0.00 0.00 49 1021.9
20210805190128 81 119 4.0 10.0 0.00 0.00 0.00 49 1021.8
20210805184529 80 96 7.0 13.0 0.00 0.00 0.00 52 1021.9
20210805183126 82 97 4.0 12.0 0.00 0.00 0.00 49 1022.1
20210805181553 81 130 8.0 14.0 0.00 0.00 0.00 51 1022.1
20210805180142 80 92 3.0 10.0 0.00 0.00 0.00 52 1022.3
20210805174529 79 94 5.0 12.0 0.00 0.00 0.00 51 1022.5
20210805173044 79 86 3.0 10.0 0.00 0.00 0.00 52 1022.7
20210805171612 80 63 6.0 13.0 0.00 0.00 0.00 54 1022.8
20210805170032 79 106 8.0 13.0 0.00 0.00 0.00 58 1022.8
20210805164622 80 338 3.0 7.0 0.00 0.00 0.00 56 1022.9
20210805163042 78 34 4.0 10.0 0.00 0.00 0.00 57 1023.0
20210805161537 78 98 4.0 9.0 0.00 0.00 0.00 63 1023.0
20210805160035 76 77 2.0 5.0 0.00 0.00 0.00 64 1023.0
20210805154554 75 352 4.0 8.0 0.00 0.00 0.00 66 1023.2
20210805153028 75 352 0.0 2.0 0.00 0.00 0.00 69 1023.1
20210805151620 74 0 1.0 7.0 0.00 0.00 0.00 71 1023.1
20210805150027 74 16 3.0 9.0 0.00 0.00 0.00 72 1023.2
20210805144537 74 32 3.0 8.0 0.00 0.00 0.00 71 1023.2
20210805143034 73 40 2.0 6.0 0.00 0.00 0.00 76 1023.2
20210805141529 72 348 1.0 4.0 0.00 0.00 0.00 77 1023.1
20210805140041 72 11 3.0 7.0 0.00 0.00 0.00 78 1023.0
20210805134523 71 103 1.0 4.0 0.00 0.00 0.00 80 1022.9
20210805133053 70 117 1.0 3.0 0.00 0.00 0.00 81 1023.1
20210805131524 70 58 2.0 4.0 0.00 0.00 0.00 83 1022.9
20210805130044 69 79 2.0 6.0 0.00 0.00 0.00 83 1022.9
20210805124608 68 95 2.0 7.0 0.00 0.00 0.00 84 1022.8
20210805123120 67 74 2.0 5.0 0.00 0.00 0.00 86 1022.6
20210805121523 67 47 0.0 4.0 0.00 0.00 0.00 86 1022.7
20210805120128 66 47 1.0 3.0 0.00 0.00 0.00 88 1022.5
20210805114526 65 48 1.0 3.0 0.00 0.00 0.00 90 1022.4
20210805113032 63 99 0.0 2.0 0.00 0.00 0.00 93 1022.3
20210805111538 63 99 0.0 2.0 0.00 0.00 0.00 93 1022.1
20210805110121 62 0 0.0 2.0 0.00 0.00 0.00 94 1022.0
20210805104609 62 99 0.0 2.0 0.00 0.00 0.00 94 1022.0
20210805103038 62 0 0.0 1.0 0.00 0.00 0.00 94 1021.7
20210805101529 62 0 0.0 1.0 0.00 0.00 0.00 94 1021.6
20210805100055 63 0 0.0 1.0 0.00 0.00 0.00 94 1021.5
20210805094557 63 0 0.0 1.0 0.00 0.00 0.00 94 1021.4
20210805093123 63 99 0.0 2.0 0.00 0.00 0.00 93 1021.3
20210805091543 64 99 1.0 2.0 0.00 0.00 0.00 92 1021.3
20210805090050 65 0 0.0 1.0 0.00 0.00 0.00 91 1021.1
20210805084556 65 0 0.0 3.0 0.00 0.00 0.00 91 1021.1
20210805083051 65 99 0.0 2.0 0.00 0.00 0.00 92 1021.0
20210805081530 65 0 0.0 2.0 0.00 0.00 0.00 91 1021.0
20210805080107 66 0 0.0 2.0 0.00 0.00 0.00 91 1020.8
20210805074604 66 100 0.0 1.0 0.00 0.00 0.00 90 1020.8
20210805073103 66 0 0.0 1.0 0.00 0.00 0.00 90 1020.6
20210805071535 66 0 0.0 2.0 0.00 0.00 0.00 89 1020.8
20210805070036 66 0 0.0 1.0 0.00 0.00 0.00 88 1020.7
20210805064524 66 100 0.0 2.0 0.00 0.00 0.00 89 1020.7
20210805063106 67 0 0.0 1.0 0.00 0.00 0.00 88 1020.7
20210805061551 66 0 0.0 2.0 0.00 0.00 0.00 90 1020.8
20210805060058 66 0 0.0 1.0 0.00 0.00 0.00 90 1020.8
20210805054538 66 0 0.0 1.0 0.00 0.00 0.00 90 1020.7
20210805053026 66 0 0.0 1.0 0.00 0.00 0.00 89 1020.6
20210805051548 66 0 0.0 1.0 0.00 0.00 0.00 89 1020.7
20210805050059 66 0 0.0 0.0 0.00 0.00 0.00 89 1020.7
20210805044527 67 0 0.0 0.0 0.00 0.00 0.00 88 1020.7
20210805043050 66 0 0.0 1.0 0.00 0.00 0.00 90 1020.6
20210805041521 66 0 0.0 1.0 0.00 0.00 0.00 90 1020.6
20210805040033 67 101 1.0 2.0 0.00 0.00 0.00 89 1020.6
20210805034609 67 0 0.0 3.0 0.00 0.00 0.00 88 1020.6
20210805033020 67 101 0.0 2.0 0.00 0.00 0.00 87 1020.4
20210805031603 68 0 0.0 1.0 0.00 0.00 0.00 86 1020.4
20210805030039 69 101 0.0 2.0 0.00 0.00 0.00 84 1020.4
20210805024532 69 101 0.0 1.0 0.00 0.00 0.00 83 1020.4
20210805023029 69 0 0.0 1.0 0.00 0.00 0.00 84 1020.6
20210805021545 69 101 0.0 2.0 0.00 0.00 0.00 83 1020.3